Deqen, China
Current Conditions -  °F | °C
As of 9:00 PM on Tuesday 21 Oct 2014 (Local Time) from ZPPP Reporting Station
Few Clouds Few Clouds  
Wind Chill: 57°   Ceiling: Unl
Heat Index: 57°   Visibility: 6mi
Dew Point: 45°   Wind: 0mph
Humidity: 63%   Direction: NA
Pressure: 30.36"   Gusts: NA
Location:  28.5°N, 98.9°E
Report Text: ZPPP 211300Z 00000MPS 9999 FEW026 14/07 Q1028 NOSIG
Loading
Personal Weather Stations






























Interactive Weather Map New forecast layout! Learn more

10-Day Weather Forecast

Advertisements
Track Severe Weather on mobile